sensor_id;sensor_type;location;lat;lon;timestamp;pressure;altitude;pressure_sealevel;temperature;humidity
38289;BME280;24092;53.370;-6.588;2023-05-01T00:02:10;101132.79;;;9.42;100.00
38289;BME280;24092;53.370;-6.588;2023-05-01T00:04:36;101133.21;;;8.82;100.00
38289;BME280;24092;53.370;-6.588;2023-05-01T00:07:03;101128.64;;;9.87;100.00
38289;BME280;24092;53.370;-6.588;2023-05-01T00:09:30;101124.72;;;9.23;100.00
38289;BME280;24092;53.370;-6.588;2023-05-01T00:11:57;101129.22;;;10.69;100.00
38289;BME280;24092;53.370;-6.588;2023-05-01T00:14:24;101129.55;;;8.02;100.00
38289;BME280;24092;53.370;-6.588;2023-05-01T00:16:51;101130.82;;;9.25;100.00
38289;BME280;24092;53.370;-6.588;2023-05-01T00:19:18;101135.85;;;10.16;100.00
38289;BME280;24092;53.370;-6.588;2023-05-01T00:21:45;101135.00;;;11.18;100.00
38289;BME280;24092;53.370;-6.588;2023-05-01T00:24:13;101133.08;;;10.82;100.00
38289;BME280;24092;53.370;-6.588;2023-05-01T00:26:39;101133.62;;;11.01;100.00
38289;BME280;24092;53.370;-6.588;2023-05-01T00:29:07;101130.64;;;11.48;100.00
38289;BME280;24092;53.370;-6.588;2023-05-01T00:31:34;101127.13;;;11.67;100.00
38289;BME280;24092;53.370;-6.588;2023-05-01T00:34:01;101124.61;;;12.11;100.00
38289;BME280;24092;53.370;-6.588;2023-05-01T00:36:28;101124.00;;;12.13;100.00
38289;BME280;24092;53.370;-6.588;2023-05-01T00:38:55;101123.63;;;11.68;100.00
38289;BME280;24092;53.370;-6.588;2023-05-01T00:41:22;101120.57;;;12.12;100.00
38289;BME280;24092;53.370;-6.588;2023-05-01T00:43:49;101122.87;;;12.20;100.00
38289;BME280;24092;53.370;-6.588;2023-05-01T00:46:15;101123.01;;;12.06;100.00
38289;BME280;24092;53.370;-6.588;2023-05-01T00:48:42;101124.77;;;11.76;100.00
38289;BME280;24092;53.370;-6.588;2023-05-01T00:51:09;101128.08;;;11.69;100.00
38289;BME280;24092;53.370;-6.588;2023-05-01T00:53:39;101136.11;;;12.51;100.00
38289;BME280;24092;53.370;-6.588;2023-05-01T00:56:07;101138.15;;;12.33;100.00
38289;BME280;24092;53.370;-6.588;2023-05-01T00:58:35;101135.38;;;12.58;100.00
38289;BME280;24092;53.370;-6.588;2023-05-01T01:01:02;101132.49;;;11.07;100.00
38289;BME280;24092;53.370;-6.588;2023-05-01T01:03:30;101134.65;;;11.85;100.00
38289;BME280;24092;53.370;-6.588;2023-05-01T01:06:04;101132.09;;;11.43;100.00
38289;BME280;24092;53.370;-6.588;2023-05-01T01:08:37;101129.11;;;11.20;100.00
38289;BME280;24092;53.370;-6.588;2023-05-01T01:11:13;101131.76;;;10.92;100.00
38289;BME280;24092;53.370;-6.588;2023-05-01T01:13:46;101128.73;;;10.53;100.00
38289;BME280;24092;53.370;-6.588;2023-05-01T01:16:22;101129.10;;;10.19;100.00
38289;BME280;24092;53.370;-6.588;2023-05-01T01:19:00;101130.37;;;10.01;100.00
38289;BME280;24092;53.370;-6.588;2023-05-01T01:21:31;101132.05;;;9.05;100.00
38289;BME280;24092;53.370;-6.588;2023-05-01T01:26:26;101129.10;;;10.96;100.00
38289;BME280;24092;53.370;-6.588;2023-05-01T01:30:23;101125.29;;;8.76;100.00
38289;BME280;24092;53.370;-6.588;2023-05-01T01:33:20;101123.15;;;9.30;100.00
38289;BME280;24092;53.370;-6.588;2023-05-01T01:35:53;101126.38;;;9.68;100.00
38289;BME280;24092;53.370;-6.588;2023-05-01T01:38:23;101126.60;;;10.60;100.00
38289;BME280;24092;53.370;-6.588;2023-05-01T01:40:58;101123.11;;;9.71;100.00
38289;BME280;24092;53.370;-6.588;2023-05-01T01:43:30;101119.69;;;10.08;100.00
38289;BME280;24092;53.370;-6.588;2023-05-01T01:46:01;101117.36;;;9.57;100.00
38289;BME280;24092;53.370;-6.588;2023-05-01T01:48:35;101116.20;;;9.96;100.00
38289;BME280;24092;53.370;-6.588;2023-05-01T01:51:05;101116.23;;;10.43;100.00
38289;BME280;24092;53.370;-6.588;2023-05-01T01:53:34;101111.40;;;10.15;100.00
38289;BME280;24092;53.370;-6.588;2023-05-01T01:56:05;101109.90;;;10.39;100.00
38289;BME280;24092;53.370;-6.588;2023-05-01T01:58:34;101110.52;;;9.96;100.00
38289;BME280;24092;53.370;-6.588;2023-05-01T02:01:03;101108.65;;;10.48;100.00
38289;BME280;24092;53.370;-6.588;2023-05-01T02:03:32;101105.78;;;10.53;100.00
38289;BME280;24092;53.370;-6.588;2023-05-01T02:06:00;101106.57;;;10.41;100.00
38289;BME280;24092;53.370;-6.588;2023-05-01T02:08:29;101106.15;;;10.54;100.00
38289;BME280;24092;53.370;-6.588;2023-05-01T02:10:58;101107.02;;;10.15;100.00
38289;BME280;24092;53.370;-6.588;2023-05-01T02:13:28;101106.22;;;9.79;100.00
38289;BME280;24092;53.370;-6.588;2023-05-01T02:15:57;101100.90;;;10.54;100.00
38289;BME280;24092;53.370;-6.588;2023-05-01T02:18:25;101099.53;;;10.76;100.00
38289;BME280;24092;53.370;-6.588;2023-05-01T02:20:54;101100.26;;;10.43;100.00
38289;BME280;24092;53.370;-6.588;2023-05-01T02:23:23;101100.17;;;10.17;100.00
38289;BME280;24092;53.370;-6.588;2023-05-01T02:25:52;101098.43;;;9.68;100.00
38289;BME280;24092;53.370;-6.588;2023-05-01T02:28:22;101099.94;;;10.83;100.00
38289;BME280;24092;53.370;-6.588;2023-05-01T02:30:50;101100.89;;;10.25;100.00
38289;BME280;24092;53.370;-6.588;2023-05-01T02:33:17;101098.25;;;10.59;100.00
38289;BME280;24092;53.370;-6.588;2023-05-01T02:35:44;101098.07;;;10.12;100.00
38289;BME280;24092;53.370;-6.588;2023-05-01T02:38:12;101096.27;;;10.19;100.00
38289;BME280;24092;53.370;-6.588;2023-05-01T02:40:44;101095.57;;;10.10;100.00
38289;BME280;24092;53.370;-6.588;2023-05-01T02:43:15;101097.88;;;9.80;100.00
38289;BME280;24092;53.370;-6.588;2023-05-01T02:45:44;101099.96;;;9.06;100.00
38289;BME280;24092;53.370;-6.588;2023-05-01T02:48:16;101099.33;;;9.78;100.00
38289;BME280;24092;53.370;-6.588;2023-05-01T02:50:44;101100.18;;;9.89;100.00
38289;BME280;24092;53.370;-6.588;2023-05-01T02:53:12;101099.01;;;10.43;100.00
38289;BME280;24092;53.370;-6.588;2023-05-01T02:55:39;101097.16;;;10.05;100.00
38289;BME280;24092;53.370;-6.588;2023-05-01T02:58:08;101100.94;;;9.82;100.00
38289;BME280;24092;53.370;-6.588;2023-05-01T03:00:40;101103.46;;;10.27;100.00
38289;BME280;24092;53.370;-6.588;2023-05-01T03:03:07;101102.01;;;10.35;100.00
38289;BME280;24092;53.370;-6.588;2023-05-01T03:05:35;101096.14;;;10.33;100.00
38289;BME280;24092;53.370;-6.588;2023-05-01T03:08:02;101094.67;;;10.38;100.00
38289;BME280;24092;53.370;-6.588;2023-05-01T03:10:29;101089.54;;;10.57;100.00
38289;BME280;24092;53.370;-6.588;2023-05-01T03:12:55;101083.19;;;10.48;100.00
38289;BME280;24092;53.370;-6.588;2023-05-01T03:15:22;101083.03;;;10.10;100.00
38289;BME280;24092;53.370;-6.588;2023-05-01T03:17:49;101085.76;;;10.45;100.00
38289;BME280;24092;53.370;-6.588;2023-05-01T03:20:16;101089.70;;;10.79;100.00
38289;BME280;24092;53.370;-6.588;2023-05-01T03:22:43;101091.65;;;10.99;100.00
38289;BME280;24092;53.370;-6.588;2023-05-01T03:25:10;101095.00;;;10.61;100.00
38289;BME280;24092;53.370;-6.588;2023-05-01T03:27:37;101095.93;;;10.73;100.00
38289;BME280;24092;53.370;-6.588;2023-05-01T03:30:05;101098.03;;;10.58;100.00
38289;BME280;24092;53.370;-6.588;2023-05-01T03:32:32;101103.75;;;10.48;100.00
38289;BME280;24092;53.370;-6.588;2023-05-01T03:34:59;101105.72;;;10.35;100.00
38289;BME280;24092;53.370;-6.588;2023-05-01T03:37:27;101108.56;;;11.09;100.00
38289;BME280;24092;53.370;-6.588;2023-05-01T03:39:54;101110.42;;;10.48;100.00
38289;BME280;24092;53.370;-6.588;2023-05-01T03:42:21;101118.01;;;10.47;100.00
38289;BME280;24092;53.370;-6.588;2023-05-01T03:44:48;101121.05;;;10.90;100.00
38289;BME280;24092;53.370;-6.588;2023-05-01T03:47:15;101124.37;;;10.55;100.00
38289;BME280;24092;53.370;-6.588;2023-05-01T03:49:42;101124.19;;;10.61;100.00
38289;BME280;24092;53.370;-6.588;2023-05-01T03:52:10;101122.87;;;9.93;100.00
38289;BME280;24092;53.370;-6.588;2023-05-01T03:54:37;101126.08;;;11.40;100.00
38289;BME280;24092;53.370;-6.588;2023-05-01T03:57:04;101127.61;;;10.96;100.00
38289;BME280;24092;53.370;-6.588;2023-05-01T03:59:31;101123.84;;;11.38;100.00
38289;BME280;24092;53.370;-6.588;2023-05-01T04:01:58;101126.29;;;11.62;100.00
38289;BME280;24092;53.370;-6.588;2023-05-01T04:04:25;101134.05;;;10.91;100.00
38289;BME280;24092;53.370;-6.588;2023-05-01T04:06:52;101135.44;;;12.35;100.00
38289;BME280;24092;53.370;-6.588;2023-05-01T04:09:19;101135.11;;;11.45;100.00
38289;BME280;24092;53.370;-6.588;2023-05-01T04:11:46;101140.70;;;11.08;100.00
38289;BME280;24092;53.370;-6.588;2023-05-01T04:14:13;101137.31;;;10.05;100.00
38289;BME280;24092;53.370;-6.588;2023-05-01T04:16:40;101139.71;;;11.12;100.00
38289;BME280;24092;53.370;-6.588;2023-05-01T04:19:06;101138.93;;;11.81;100.00
38289;BME280;24092;53.370;-6.588;2023-05-01T04:21:33;101138.12;;;11.84;100.00
38289;BME280;24092;53.370;-6.588;2023-05-01T04:24:00;101137.15;;;11.95;100.00
38289;BME280;24092;53.370;-6.588;2023-05-01T04:26:27;101138.48;;;12.00;100.00
38289;BME280;24092;53.370;-6.588;2023-05-01T04:28:54;101142.79;;;11.88;100.00
38289;BME280;24092;53.370;-6.588;2023-05-01T04:31:21;101141.10;;;11.69;100.00
38289;BME280;24092;53.370;-6.588;2023-05-01T04:33:48;101143.39;;;10.66;100.00
38289;BME280;24092;53.370;-6.588;2023-05-01T04:36:15;101144.93;;;11.44;100.00
38289;BME280;24092;53.370;-6.588;2023-05-01T04:38:42;101149.86;;;11.61;100.00
38289;BME280;24092;53.370;-6.588;2023-05-01T04:41:09;101152.10;;;11.07;100.00
38289;BME280;24092;53.370;-6.588;2023-05-01T04:43:35;101158.71;;;11.48;100.00
38289;BME280;24092;53.370;-6.588;2023-05-01T04:46:03;101161.94;;;10.67;100.00
38289;BME280;24092;53.370;-6.588;2023-05-01T04:48:30;101160.95;;;10.49;100.00
38289;BME280;24092;53.370;-6.588;2023-05-01T04:50:57;101161.34;;;10.05;100.00
38289;BME280;24092;53.370;-6.588;2023-05-01T04:53:24;101161.46;;;10.05;100.00
38289;BME280;24092;53.370;-6.588;2023-05-01T04:55:51;101166.00;;;10.62;100.00
38289;BME280;24092;53.370;-6.588;2023-05-01T04:58:18;101167.30;;;10.46;100.00
38289;BME280;24092;53.370;-6.588;2023-05-01T05:00:45;101167.72;;;10.80;100.00
38289;BME280;24092;53.370;-6.588;2023-05-01T05:03:12;101171.28;;;10.99;100.00
38289;BME280;24092;53.370;-6.588;2023-05-01T05:05:39;101169.92;;;10.81;100.00
38289;BME280;24092;53.370;-6.588;2023-05-01T05:08:05;101167.14;;;10.14;100.00
38289;BME280;24092;53.370;-6.588;2023-05-01T05:10:32;101166.88;;;10.62;100.00
38289;BME280;24092;53.370;-6.588;2023-05-01T05:12:59;101170.20;;;10.67;100.00
38289;BME280;24092;53.370;-6.588;2023-05-01T05:15:26;101172.93;;;10.78;100.00
38289;BME280;24092;53.370;-6.588;2023-05-01T05:17:53;101174.65;;;11.13;100.00
38289;BME280;24092;53.370;-6.588;2023-05-01T05:20:20;101176.63;;;11.20;100.00
38289;BME280;24092;53.370;-6.588;2023-05-01T05:22:47;101175.36;;;10.12;100.00
38289;BME280;24092;53.370;-6.588;2023-05-01T05:25:14;101178.09;;;10.04;100.00
38289;BME280;24092;53.370;-6.588;2023-05-01T05:27:41;101180.88;;;10.68;100.00
38289;BME280;24092;53.370;-6.588;2023-05-01T05:30:09;101181.81;;;8.43;100.00
38289;BME280;24092;53.370;-6.588;2023-05-01T05:32:37;101188.66;;;9.80;100.00
38289;BME280;24092;53.370;-6.588;2023-05-01T05:35:05;101193.52;;;7.90;100.00
38289;BME280;24092;53.370;-6.588;2023-05-01T05:37:32;101188.54;;;10.74;100.00
38289;BME280;24092;53.370;-6.588;2023-05-01T05:39:59;101192.05;;;8.74;100.00
38289;BME280;24092;53.370;-6.588;2023-05-01T05:42:25;101188.82;;;8.69;100.00
38289;BME280;24092;53.370;-6.588;2023-05-01T05:44:52;101185.97;;;9.57;100.00
38289;BME280;24092;53.370;-6.588;2023-05-01T05:47:19;101196.27;;;10.82;100.00
38289;BME280;24092;53.370;-6.588;2023-05-01T05:49:46;101194.53;;;9.41;100.00
38289;BME280;24092;53.370;-6.588;2023-05-01T05:52:13;101198.29;;;10.63;100.00
38289;BME280;24092;53.370;-6.588;2023-05-01T05:54:40;101202.44;;;11.18;100.00
38289;BME280;24092;53.370;-6.588;2023-05-01T05:57:07;101203.12;;;11.25;100.00
38289;BME280;24092;53.370;-6.588;2023-05-01T05:59:34;101201.68;;;10.64;100.00
38289;BME280;24092;53.370;-6.588;2023-05-01T06:02:01;101208.91;;;11.08;100.00
38289;BME280;24092;53.370;-6.588;2023-05-01T06:04:27;101210.36;;;10.97;100.00
38289;BME280;24092;53.370;-6.588;2023-05-01T06:06:55;101210.58;;;10.40;100.00
38289;BME280;24092;53.370;-6.588;2023-05-01T06:09:21;101212.09;;;10.68;100.00
38289;BME280;24092;53.370;-6.588;2023-05-01T06:11:48;101213.21;;;11.01;100.00
38289;BME280;24092;53.370;-6.588;2023-05-01T06:14:15;101216.83;;;11.16;100.00
38289;BME280;24092;53.370;-6.588;2023-05-01T06:16:42;101216.00;;;11.29;100.00
38289;BME280;24092;53.370;-6.588;2023-05-01T06:19:09;101216.14;;;12.01;100.00
38289;BME280;24092;53.370;-6.588;2023-05-01T06:21:37;101220.50;;;11.88;100.00
38289;BME280;24092;53.370;-6.588;2023-05-01T06:24:05;101223.53;;;11.18;100.00
38289;BME280;24092;53.370;-6.588;2023-05-01T06:26:32;101226.94;;;10.76;100.00
38289;BME280;24092;53.370;-6.588;2023-05-01T06:28:59;101228.92;;;10.63;100.00
38289;BME280;24092;53.370;-6.588;2023-05-01T06:31:26;101231.57;;;10.35;100.00
38289;BME280;24092;53.370;-6.588;2023-05-01T06:33:53;101229.52;;;11.00;100.00
38289;BME280;24092;53.370;-6.588;2023-05-01T06:36:20;101232.43;;;10.44;100.00
38289;BME280;24092;53.370;-6.588;2023-05-01T06:38:47;101233.34;;;10.23;100.00
38289;BME280;24092;53.370;-6.588;2023-05-01T06:41:14;101239.09;;;9.44;100.00
38289;BME280;24092;53.370;-6.588;2023-05-01T06:43:41;101245.87;;;9.31;100.00
38289;BME280;24092;53.370;-6.588;2023-05-01T06:46:08;101250.59;;;10.68;100.00
38289;BME280;24092;53.370;-6.588;2023-05-01T06:48:36;101248.65;;;10.64;100.00
38289;BME280;24092;53.370;-6.588;2023-05-01T06:51:03;101248.83;;;9.59;100.00
38289;BME280;24092;53.370;-6.588;2023-05-01T06:53:30;101255.79;;;10.18;100.00
38289;BME280;24092;53.370;-6.588;2023-05-01T06:55:57;101255.56;;;9.93;100.00
38289;BME280;24092;53.370;-6.588;2023-05-01T06:58:24;101254.62;;;8.57;100.00
38289;BME280;24092;53.370;-6.588;2023-05-01T07:00:52;101253.67;;;8.08;100.00
38289;BME280;24092;53.370;-6.588;2023-05-01T07:03:19;101256.54;;;10.10;100.00
38289;BME280;24092;53.370;-6.588;2023-05-01T07:05:46;101260.95;;;7.51;100.00
38289;BME280;24092;53.370;-6.588;2023-05-01T07:08:13;101264.01;;;8.34;100.00
38289;BME280;24092;53.370;-6.588;2023-05-01T07:10:39;101264.57;;;10.66;100.00
38289;BME280;24092;53.370;-6.588;2023-05-01T07:13:06;101266.88;;;9.31;100.00
38289;BME280;24092;53.370;-6.588;2023-05-01T07:15:33;101270.07;;;9.05;100.00
38289;BME280;24092;53.370;-6.588;2023-05-01T07:18:00;101271.67;;;8.82;100.00
38289;BME280;24092;53.370;-6.588;2023-05-01T07:20:27;101274.35;;;9.20;100.00
38289;BME280;24092;53.370;-6.588;2023-05-01T07:22:54;101275.84;;;9.20;100.00
38289;BME280;24092;53.370;-6.588;2023-05-01T07:25:21;101279.29;;;8.29;100.00
38289;BME280;24092;53.370;-6.588;2023-05-01T07:27:48;101284.79;;;7.34;100.00
38289;BME280;24092;53.370;-6.588;2023-05-01T07:30:15;101288.49;;;7.69;100.00
38289;BME280;24092;53.370;-6.588;2023-05-01T07:32:42;101290.77;;;9.11;100.00
38289;BME280;24092;53.370;-6.588;2023-05-01T07:35:09;101293.83;;;6.37;100.00
38289;BME280;24092;53.370;-6.588;2023-05-01T07:37:36;101293.59;;;9.41;100.00
38289;BME280;24092;53.370;-6.588;2023-05-01T07:42:02;101295.16;;;7.21;100.00
38289;BME280;24092;53.370;-6.588;2023-05-01T07:44:29;101293.80;;;9.37;100.00
38289;BME280;24092;53.370;-6.588;2023-05-01T07:47:02;101292.52;;;9.59;100.00
38289;BME280;24092;53.370;-6.588;2023-05-01T07:49:29;101290.81;;;9.65;100.00
38289;BME280;24092;53.370;-6.588;2023-05-01T07:52:00;101295.85;;;8.48;100.00
38289;BME280;24092;53.370;-6.588;2023-05-01T07:54:27;101292.85;;;9.65;100.00
38289;BME280;24092;53.370;-6.588;2023-05-01T07:56:54;101294.74;;;8.62;100.00
38289;BME280;24092;53.370;-6.588;2023-05-01T07:59:21;101297.77;;;8.69;100.00
38289;BME280;24092;53.370;-6.588;2023-05-01T08:01:48;101297.93;;;9.45;100.00
38289;BME280;24092;53.370;-6.588;2023-05-01T08:04:14;101302.72;;;9.62;100.00
38289;BME280;24092;53.370;-6.588;2023-05-01T08:06:41;101303.71;;;10.35;100.00
38289;BME280;24092;53.370;-6.588;2023-05-01T08:09:08;101308.55;;;8.20;100.00
38289;BME280;24092;53.370;-6.588;2023-05-01T08:11:35;101312.10;;;9.13;100.00
38289;BME280;24092;53.370;-6.588;2023-05-01T08:14:02;101312.01;;;7.41;100.00
38289;BME280;24092;53.370;-6.588;2023-05-01T08:16:29;101313.17;;;10.06;100.00
38289;BME280;24092;53.370;-6.588;2023-05-01T08:18:56;101315.69;;;9.59;100.00
38289;BME280;24092;53.370;-6.588;2023-05-01T08:21:23;101316.74;;;9.74;100.00
38289;BME280;24092;53.370;-6.588;2023-05-01T08:23:49;101321.01;;;7.75;100.00
38289;BME280;24092;53.370;-6.588;2023-05-01T08:26:16;101320.38;;;9.69;100.00
38289;BME280;24092;53.370;-6.588;2023-05-01T08:28:43;101321.99;;;9.59;100.00
38289;BME280;24092;53.370;-6.588;2023-05-01T08:31:10;101325.44;;;10.02;100.00
38289;BME280;24092;53.370;-6.588;2023-05-01T08:33:37;101326.59;;;9.67;100.00
38289;BME280;24092;53.370;-6.588;2023-05-01T08:36:04;101326.50;;;9.49;100.00
38289;BME280;24092;53.370;-6.588;2023-05-01T08:38:32;101326.49;;;10.94;100.00
38289;BME280;24092;53.370;-6.588;2023-05-01T08:40:58;101331.91;;;10.83;100.00
38289;BME280;24092;53.370;-6.588;2023-05-01T08:43:26;101329.26;;;10.99;100.00
38289;BME280;24092;53.370;-6.588;2023-05-01T08:45:55;101326.79;;;10.38;100.00
38289;BME280;24092;53.370;-6.588;2023-05-01T08:48:25;101328.98;;;10.95;100.00
38289;BME280;24092;53.370;-6.588;2023-05-01T08:50:55;101330.00;;;9.99;100.00
38289;BME280;24092;53.370;-6.588;2023-05-01T08:53:23;101335.17;;;10.34;100.00
38289;BME280;24092;53.370;-6.588;2023-05-01T08:55:51;101333.52;;;10.27;100.00
38289;BME280;24092;53.370;-6.588;2023-05-01T08:58:20;101334.80;;;11.16;100.00
38289;BME280;24092;53.370;-6.588;2023-05-01T09:00:48;101333.86;;;10.89;100.00
38289;BME280;24092;53.370;-6.588;2023-05-01T09:03:15;101336.35;;;10.22;100.00
38289;BME280;24092;53.370;-6.588;2023-05-01T09:05:42;101337.11;;;9.19;100.00
38289;BME280;24092;53.370;-6.588;2023-05-01T09:08:10;101337.35;;;10.02;100.00
38289;BME280;24092;53.370;-6.588;2023-05-01T09:10:41;101332.42;;;10.21;100.00
38289;BME280;24092;53.370;-6.588;2023-05-01T09:13:10;101331.15;;;10.54;100.00
38289;BME280;24092;53.370;-6.588;2023-05-01T09:15:37;101335.05;;;9.81;100.00
38289;BME280;24092;53.370;-6.588;2023-05-01T09:18:05;101332.64;;;8.94;100.00
38289;BME280;24092;53.370;-6.588;2023-05-01T09:20:36;101328.52;;;11.17;100.00
38289;BME280;24092;53.370;-6.588;2023-05-01T09:23:03;101329.84;;;8.83;100.00
38289;BME280;24092;53.370;-6.588;2023-05-01T09:25:30;101328.47;;;9.01;100.00
38289;BME280;24092;53.370;-6.588;2023-05-01T09:27:57;101327.00;;;10.80;100.00
38289;BME280;24092;53.370;-6.588;2023-05-01T09:30:33;101326.48;;;11.14;100.00
38289;BME280;24092;53.370;-6.588;2023-05-01T09:33:05;101331.17;;;9.83;100.00
38289;BME280;24092;53.370;-6.588;2023-05-01T09:35:47;101330.98;;;9.30;100.00
38289;BME280;24092;53.370;-6.588;2023-05-01T09:38:17;101330.34;;;8.92;100.00
38289;BME280;24092;53.370;-6.588;2023-05-01T09:40:44;101333.08;;;11.20;100.00
38289;BME280;24092;53.370;-6.588;2023-05-01T09:43:12;101333.72;;;10.60;100.00
38289;BME280;24092;53.370;-6.588;2023-05-01T09:45:41;101337.11;;;10.75;100.00
38289;BME280;24092;53.370;-6.588;2023-05-01T09:48:09;101341.46;;;10.00;100.00
38289;BME280;24092;53.370;-6.588;2023-05-01T09:50:36;101343.67;;;11.93;100.00
38289;BME280;24092;53.370;-6.588;2023-05-01T09:53:04;101341.11;;;11.58;100.00
38289;BME280;24092;53.370;-6.588;2023-05-01T09:55:32;101340.52;;;11.10;100.00
38289;BME280;24092;53.370;-6.588;2023-05-01T09:57:59;101340.30;;;11.21;100.00
38289;BME280;24092;53.370;-6.588;2023-05-01T10:00:26;101344.54;;;10.75;100.00
38289;BME280;24092;53.370;-6.588;2023-05-01T10:02:54;101340.17;;;8.28;100.00
38289;BME280;24092;53.370;-6.588;2023-05-01T10:05:21;101349.62;;;9.55;100.00
38289;BME280;24092;53.370;-6.588;2023-05-01T10:07:56;101348.33;;;11.05;100.00
38289;BME280;24092;53.370;-6.588;2023-05-01T10:10:24;101348.85;;;9.58;100.00
38289;BME280;24092;53.370;-6.588;2023-05-01T10:12:52;101352.06;;;8.53;100.00
38289;BME280;24092;53.370;-6.588;2023-05-01T10:15:20;101349.77;;;8.36;100.00
38289;BME280;24092;53.370;-6.588;2023-05-01T10:17:49;101352.82;;;11.10;100.00
38289;BME280;24092;53.370;-6.588;2023-05-01T10:20:16;101348.23;;;11.77;100.00
38289;BME280;24092;53.370;-6.588;2023-05-01T10:22:43;101351.49;;;12.49;100.00
38289;BME280;24092;53.370;-6.588;2023-05-01T10:25:12;101349.09;;;10.66;100.00
38289;BME280;24092;53.370;-6.588;2023-05-01T10:27:41;101350.71;;;12.16;100.00
38289;BME280;24092;53.370;-6.588;2023-05-01T10:30:09;101348.17;;;12.11;100.00
38289;BME280;24092;53.370;-6.588;2023-05-01T10:32:38;101342.44;;;9.94;100.00
38289;BME280;24092;53.370;-6.588;2023-05-01T10:35:10;101347.86;;;10.63;100.00
38289;BME280;24092;53.370;-6.588;2023-05-01T10:37:45;101345.98;;;10.77;100.00
38289;BME280;24092;53.370;-6.588;2023-05-01T10:41:59;101352.29;;;12.65;100.00
38289;BME280;24092;53.370;-6.588;2023-05-01T10:44:27;101355.65;;;12.54;100.00
38289;BME280;24092;53.370;-6.588;2023-05-01T10:46:54;101351.97;;;13.48;100.00
38289;BME280;24092;53.370;-6.588;2023-05-01T10:49:22;101357.62;;;12.74;100.00
38289;BME280;24092;53.370;-6.588;2023-05-01T10:52:05;101356.42;;;12.63;100.00
38289;BME280;24092;53.370;-6.588;2023-05-01T10:54:32;101358.28;;;13.36;100.00
38289;BME280;24092;53.370;-6.588;2023-05-01T10:57:02;101361.83;;;11.94;100.00
38289;BME280;24092;53.370;-6.588;2023-05-01T11:00:09;101358.33;;;14.14;100.00
38289;BME280;24092;53.370;-6.588;2023-05-01T11:02:37;101358.61;;;13.92;100.00
38289;BME280;24092;53.370;-6.588;2023-05-01T11:05:04;101358.58;;;13.76;100.00
38289;BME280;24092;53.370;-6.588;2023-05-01T11:07:31;101360.14;;;12.52;100.00
38289;BME280;24092;53.370;-6.588;2023-05-01T11:09:58;101359.17;;;11.50;100.00
38289;BME280;24092;53.370;-6.588;2023-05-01T11:12:57;101358.72;;;12.88;100.00
38289;BME280;24092;53.370;-6.588;2023-05-01T11:15:26;101353.86;;;13.74;100.00
38289;BME280;24092;53.370;-6.588;2023-05-01T11:17:54;101361.16;;;12.60;100.00
38289;BME280;24092;53.370;-6.588;2023-05-01T11:20:53;101365.15;;;12.80;100.00
38289;BME280;24092;53.370;-6.588;2023-05-01T11:23:22;101358.75;;;14.09;100.00
38289;BME280;24092;53.370;-6.588;2023-05-01T11:25:57;101360.70;;;14.78;100.00
38289;BME280;24092;53.370;-6.588;2023-05-01T11:28:30;101364.45;;;14.30;100.00
38289;BME280;24092;53.370;-6.588;2023-05-01T11:30:57;101361.75;;;13.11;100.00
38289;BME280;24092;53.370;-6.588;2023-05-01T11:33:24;101361.70;;;12.54;100.00
38289;BME280;24092;53.370;-6.588;2023-05-01T11:36:00;101361.75;;;14.68;100.00
38289;BME280;24092;53.370;-6.588;2023-05-01T11:38:32;101364.43;;;10.67;100.00
38289;BME280;24092;53.370;-6.588;2023-05-01T11:41:01;101368.92;;;11.26;100.00
38289;BME280;24092;53.370;-6.588;2023-05-01T11:43:29;101369.92;;;12.34;100.00
38289;BME280;24092;53.370;-6.588;2023-05-01T11:45:56;101369.91;;;13.62;100.00
38289;BME280;24092;53.370;-6.588;2023-05-01T11:48:24;101373.64;;;13.95;100.00
38289;BME280;24092;53.370;-6.588;2023-05-01T11:50:51;101375.97;;;12.67;100.00
38289;BME280;24092;53.370;-6.588;2023-05-01T11:53:18;101379.39;;;12.92;100.00
38289;BME280;24092;53.370;-6.588;2023-05-01T11:55:46;101376.15;;;14.54;100.00
38289;BME280;24092;53.370;-6.588;2023-05-01T11:58:13;101373.60;;;13.46;100.00
38289;BME280;24092;53.370;-6.588;2023-05-01T12:00:42;101375.68;;;14.47;100.00
38289;BME280;24092;53.370;-6.588;2023-05-01T12:03:11;101375.20;;;13.86;100.00
38289;BME280;24092;53.370;-6.588;2023-05-01T12:05:39;101373.68;;;13.84;100.00
38289;BME280;24092;53.370;-6.588;2023-05-01T12:08:09;101372.63;;;14.50;100.00
38289;BME280;24092;53.370;-6.588;2023-05-01T12:10:38;101370.61;;;14.06;100.00
38289;BME280;24092;53.370;-6.588;2023-05-01T12:13:08;101367.39;;;13.11;100.00
38289;BME280;24092;53.370;-6.588;2023-05-01T12:15:37;101365.71;;;13.76;100.00
38289;BME280;24092;53.370;-6.588;2023-05-01T12:18:06;101364.60;;;13.62;100.00
38289;BME280;24092;53.370;-6.588;2023-05-01T12:20:35;101364.25;;;13.80;100.00
38289;BME280;24092;53.370;-6.588;2023-05-01T12:23:02;101366.81;;;14.64;100.00
38289;BME280;24092;53.370;-6.588;2023-05-01T12:25:31;101366.36;;;14.23;100.00
38289;BME280;24092;53.370;-6.588;2023-05-01T12:27:59;101367.57;;;13.20;100.00
38289;BME280;24092;53.370;-6.588;2023-05-01T12:30:26;101361.64;;;13.59;100.00
38289;BME280;24092;53.370;-6.588;2023-05-01T12:32:54;101357.54;;;14.17;100.00
38289;BME280;24092;53.370;-6.588;2023-05-01T12:35:27;101362.55;;;12.44;100.00
38289;BME280;24092;53.370;-6.588;2023-05-01T12:37:55;101364.79;;;12.11;100.00
38289;BME280;24092;53.370;-6.588;2023-05-01T12:40:22;101363.56;;;12.65;100.00
38289;BME280;24092;53.370;-6.588;2023-05-01T12:42:54;101371.22;;;13.21;100.00
38289;BME280;24092;53.370;-6.588;2023-05-01T12:45:22;101365.33;;;14.00;100.00
38289;BME280;24092;53.370;-6.588;2023-05-01T12:47:49;101366.31;;;14.99;100.00